createdAt,value
2022-09-17T00:01:27.143Z,6.33
2022-09-17T00:03:59.203Z,6.80
2022-09-17T00:06:27.715Z,5.83
2022-09-17T00:08:56.052Z,6.43
2022-09-17T00:11:26.175Z,7.03
2022-09-17T00:13:55.295Z,6.20
2022-09-17T00:16:29.803Z,6.73
2022-09-17T00:18:58.916Z,6.07
2022-09-17T00:21:27.198Z,5.83
2022-09-17T00:23:56.443Z,6.60
2022-09-17T00:26:24.751Z,6.13
2022-09-17T00:28:53.798Z,6.27
2022-09-17T00:31:23.095Z,6.00
2022-09-17T00:33:53.196Z,6.50
2022-09-17T00:36:21.579Z,6.33
2022-09-17T00:38:51.659Z,6.20
2022-09-17T00:41:20.441Z,5.97
2022-09-17T00:43:50.978Z,6.40
2022-09-17T00:46:31.555Z,6.53
2022-09-17T00:49:03.920Z,6.13
2022-09-17T00:51:36.426Z,6.20
2022-09-17T00:54:06.646Z,7.00
2022-09-17T00:56:38.169Z,6.10
2022-09-17T00:59:06.619Z,6.60
2022-09-17T01:01:34.956Z,6.87
2022-09-17T01:04:05.044Z,6.53
2022-09-17T01:06:36.778Z,6.60
2022-09-17T01:09:22.967Z,7.30
2022-09-17T01:12:11.238Z,6.77
2022-09-17T01:14:56.543Z,7.60
2022-09-17T01:17:31.185Z,6.20
2022-09-17T01:20:36.936Z,6.10
2022-09-17T01:23:33.989Z,7.13
2022-09-17T01:26:21.062Z,7.23
2022-09-17T01:28:55.002Z,6.17
2022-09-17T01:31:37.219Z,6.90
2022-09-17T01:34:17.758Z,7.40
2022-09-17T01:37:01.728Z,6.93
2022-09-17T01:39:37.069Z,7.13
2022-09-17T01:42:14.467Z,6.80
2022-09-17T01:44:51.372Z,8.30
2022-09-17T01:47:25.403Z,8.67
2022-09-17T01:49:58.253Z,9.00
2022-09-17T01:52:28.984Z,7.47
2022-09-17T01:55:00.497Z,8.17
2022-09-17T01:57:33.672Z,8.80
2022-09-17T02:00:06.001Z,8.20
2022-09-17T02:02:41.455Z,8.27
2022-09-17T02:05:12.572Z,7.73
2022-09-17T02:07:43.382Z,7.60
2022-09-17T02:10:15.064Z,7.60
2022-09-17T02:12:47.180Z,7.97
2022-09-17T02:15:18.213Z,8.27
2022-09-17T02:17:51.465Z,9.40
2022-09-17T02:20:24.328Z,6.70
2022-09-17T02:22:57.689Z,8.07
2022-09-17T02:25:30.187Z,7.23
2022-09-17T02:28:03.704Z,7.33
2022-09-17T02:30:32.852Z,7.33
2022-09-17T02:33:05.056Z,9.47
2022-09-17T02:35:33.415Z,7.80
2022-09-17T02:38:01.567Z,7.50
2022-09-17T02:40:36.226Z,7.73
2022-09-17T02:43:15.066Z,7.80
2022-09-17T02:45:54.717Z,7.97
2022-09-17T02:48:38.278Z,7.23
2022-09-17T02:51:24.682Z,6.93
2022-09-17T02:54:01.837Z,7.57
2022-09-17T02:56:41.528Z,7.63
2022-09-17T02:59:18.257Z,7.17
2022-09-17T03:01:51.224Z,6.83
2022-09-17T03:04:23.155Z,7.60
2022-09-17T03:06:54.168Z,7.83
2022-09-17T03:09:22.495Z,6.70
2022-09-17T03:11:50.651Z,7.97
2022-09-17T03:14:20.800Z,7.20
2022-09-17T03:16:49.396Z,8.20
2022-09-17T03:19:17.736Z,7.27
2022-09-17T03:21:47.080Z,7.10
2022-09-17T03:24:15.401Z,6.87
2022-09-17T03:26:43.946Z,8.00
2022-09-17T03:29:12.307Z,7.23
2022-09-17T03:31:40.650Z,6.73
2022-09-17T03:34:09.023Z,6.70
2022-09-17T03:36:37.343Z,7.73
2022-09-17T03:39:06.878Z,6.40
2022-09-17T03:41:35.205Z,7.93
2022-09-17T03:44:04.036Z,6.93
2022-09-17T03:46:32.508Z,7.40
2022-09-17T03:49:00.975Z,6.33
2022-09-17T03:51:29.299Z,6.77
2022-09-17T03:53:57.666Z,6.63
2022-09-17T03:56:27.793Z,7.23
2022-09-17T03:58:59.721Z,7.00
2022-09-17T04:01:28.959Z,6.47
2022-09-17T04:03:57.444Z,6.67
2022-09-17T04:06:26.118Z,6.90
2022-09-17T04:08:54.455Z,7.10
2022-09-17T04:11:22.800Z,7.10
2022-09-17T04:13:52.191Z,6.60
2022-09-17T04:16:20.430Z,6.73
2022-09-17T04:18:48.770Z,5.90
2022-09-17T04:21:17.063Z,6.23
2022-09-17T04:23:45.162Z,6.80
2022-09-17T04:26:13.466Z,5.93
2022-09-17T04:28:41.567Z,6.43
2022-09-17T04:31:10.957Z,6.40
2022-09-17T04:33:39.112Z,5.70
2022-09-17T04:36:07.520Z,6.07
2022-09-17T04:38:35.841Z,6.63
2022-09-17T04:41:04.174Z,6.10
2022-09-17T04:43:32.472Z,6.00
2022-09-17T04:46:00.814Z,7.03
2022-09-17T04:48:30.182Z,6.53
2022-09-17T04:50:58.460Z,5.97
2022-09-17T04:53:26.454Z,6.37
2022-09-17T04:55:54.860Z,6.97
2022-09-17T04:58:23.170Z,5.70
2022-09-17T05:00:51.438Z,7.07
2022-09-17T05:03:19.516Z,6.00
2022-09-17T05:05:48.896Z,7.20
2022-09-17T05:08:16.869Z,5.50
2022-09-17T05:10:45.122Z,5.70
2022-09-17T05:13:13.381Z,5.63
2022-09-17T05:15:42.326Z,5.70
2022-09-17T05:18:10.320Z,6.80
2022-09-17T05:20:38.782Z,5.67
2022-09-17T05:23:08.178Z,5.53
2022-09-17T05:25:36.204Z,6.50
2022-09-17T05:28:04.503Z,5.50
2022-09-17T05:30:32.924Z,5.93
2022-09-17T05:33:02.144Z,5.83
2022-09-17T05:35:30.980Z,5.87
2022-09-17T05:38:00.788Z,5.47
2022-09-17T05:40:31.439Z,5.13
2022-09-17T05:43:01.098Z,5.30
2022-09-17T05:45:29.406Z,5.50
2022-09-17T05:47:58.200Z,6.00
2022-09-17T05:50:26.850Z,5.30
2022-09-17T05:52:55.734Z,5.80
2022-09-17T05:55:24.811Z,5.60
2022-09-17T05:57:54.196Z,5.20
2022-09-17T06:00:22.509Z,4.63
2022-09-17T06:02:56.059Z,5.73
2022-09-17T06:05:24.416Z,5.13
2022-09-17T06:07:52.720Z,4.67
2022-09-17T06:10:20.758Z,4.60
2022-09-17T06:12:49.077Z,5.27
2022-09-17T06:15:18.740Z,5.07
2022-09-17T06:17:47.444Z,5.43
2022-09-17T06:20:16.726Z,5.77
2022-09-17T06:22:44.765Z,5.23
2022-09-17T06:25:13.095Z,5.43
2022-09-17T06:27:41.166Z,5.73
2022-09-17T06:30:09.855Z,6.60
2022-09-17T06:32:39.233Z,5.70
2022-09-17T06:35:08.383Z,6.07
2022-09-17T06:37:40.237Z,5.97
2022-09-17T06:40:09.723Z,5.80
2022-09-17T06:42:38.113Z,5.63
2022-09-17T06:45:11.081Z,6.20
2022-09-17T06:47:41.588Z,5.73
2022-09-17T06:50:10.062Z,5.77
2022-09-17T06:52:38.654Z,5.57
2022-09-17T06:55:07.386Z,6.67
2022-09-17T06:57:35.451Z,5.57
2022-09-17T07:00:04.561Z,5.47
2022-09-17T07:02:32.899Z,5.43
2022-09-17T07:05:02.641Z,5.87
2022-09-17T07:07:30.691Z,5.67
2022-09-17T07:09:58.988Z,5.57
2022-09-17T07:12:26.948Z,5.37
2022-09-17T07:14:55.273Z,5.90
2022-09-17T07:17:23.583Z,4.57
2022-09-17T07:19:51.889Z,5.63
2022-09-17T07:22:21.229Z,4.80
2022-09-17T07:24:49.252Z,4.93
2022-09-17T07:27:17.536Z,5.37
2022-09-17T07:29:45.809Z,5.87
2022-09-17T07:32:14.077Z,4.63
2022-09-17T07:34:42.366Z,6.00
2022-09-17T07:37:10.758Z,4.67
2022-09-17T07:39:41.389Z,6.03
2022-09-17T07:42:09.802Z,5.63
2022-09-17T07:44:38.178Z,5.43
2022-09-17T07:47:06.771Z,6.87
2022-09-17T07:49:35.031Z,6.23
2022-09-17T07:52:06.289Z,5.50
2022-09-17T07:54:34.396Z,5.97
2022-09-17T07:57:04.317Z,5.77
2022-09-17T07:59:32.708Z,6.20
2022-09-17T08:02:00.849Z,5.73
2022-09-17T08:04:29.229Z,5.83
2022-09-17T08:06:57.533Z,5.40
2022-09-17T08:09:25.525Z,5.33
2022-09-17T08:11:56.989Z,5.67
2022-09-17T08:14:29.731Z,6.13
2022-09-17T08:16:58.485Z,5.40
2022-09-17T08:19:28.614Z,5.03
2022-09-17T08:21:56.889Z,4.97
2022-09-17T08:24:25.178Z,5.37
2022-09-17T08:26:53.462Z,4.70
2022-09-17T08:29:21.828Z,5.27
2022-09-17T08:31:51.194Z,5.33
2022-09-17T08:34:19.544Z,4.97
2022-09-17T08:36:47.887Z,5.80
2022-09-17T08:39:16.296Z,6.07
2022-09-17T08:41:51.902Z,7.03
2022-09-17T08:44:28.604Z,6.33
2022-09-17T08:47:06.203Z,7.03
2022-09-17T08:49:37.188Z,6.57
2022-09-17T08:52:54.160Z,7.37
2022-09-17T08:55:35.221Z,7.90
2022-09-17T08:58:36.322Z,7.47
2022-09-17T09:01:16.048Z,7.43
2022-09-17T09:04:13.878Z,7.27
2022-09-17T09:06:47.720Z,6.93
2022-09-17T09:09:18.165Z,7.10
2022-09-17T09:11:48.256Z,8.32
2022-09-17T09:14:23.129Z,7.13
2022-09-17T09:16:53.658Z,7.60
2022-09-17T09:19:26.887Z,7.60
2022-09-17T09:22:04.524Z,6.95
2022-09-17T09:24:41.702Z,6.25
2022-09-17T09:27:18.474Z,6.10
2022-09-17T09:29:58.974Z,6.82
2022-09-17T09:32:43.564Z,6.60
2022-09-17T09:35:19.235Z,5.67
2022-09-17T09:37:54.776Z,6.00
2022-09-17T09:40:37.266Z,7.18
2022-09-17T09:43:16.693Z,6.10
2022-09-17T09:46:01.764Z,6.07
2022-09-17T09:48:39.602Z,7.18
2022-09-17T09:51:21.587Z,6.55
2022-09-17T09:54:04.550Z,6.43
2022-09-17T09:56:51.807Z,8.13
2022-09-17T09:59:20.555Z,6.03
2022-09-17T10:01:48.758Z,6.60
2022-09-17T10:04:20.279Z,6.97
2022-09-17T10:06:52.138Z,6.50
2022-09-17T10:09:22.272Z,5.75
2022-09-17T10:12:05.058Z,5.22
2022-09-17T10:14:34.189Z,6.10
2022-09-17T10:17:23.182Z,5.93
2022-09-17T10:20:19.434Z,5.53
2022-09-17T10:22:52.246Z,5.90
2022-09-17T10:25:29.783Z,6.35
2022-09-17T10:27:59.318Z,5.60
2022-09-17T10:30:27.899Z,5.18
2022-09-17T10:33:22.159Z,6.25
2022-09-17T10:36:02.381Z,5.43
2022-09-17T10:38:35.017Z,5.77
2022-09-17T10:41:15.055Z,5.33
2022-09-17T10:43:43.581Z,4.80
2022-09-17T10:46:17.748Z,4.53
2022-09-17T10:48:52.089Z,4.97
2022-09-17T10:51:25.759Z,4.57
2022-09-17T10:54:09.311Z,5.37
2022-09-17T10:56:38.714Z,5.27
2022-09-17T10:59:24.540Z,6.07
2022-09-17T11:02:09.151Z,6.70
2022-09-17T11:04:50.016Z,6.90
2022-09-17T11:07:35.142Z,6.00
2022-09-17T11:10:12.864Z,6.90
2022-09-17T11:13:07.655Z,6.28
2022-09-17T11:15:53.260Z,6.35
2022-09-17T11:18:36.247Z,7.20
2022-09-17T11:21:30.872Z,6.20
2022-09-17T11:24:38.163Z,5.65
2022-09-17T11:27:18.279Z,5.82
2022-09-17T11:30:02.012Z,5.75
2022-09-17T11:33:22.784Z,5.20
2022-09-17T11:35:54.956Z,5.18
2022-09-17T11:38:27.959Z,6.07
2022-09-17T11:41:04.324Z,6.43
2022-09-17T11:43:36.500Z,6.15
2022-09-17T11:46:09.529Z,6.68
2022-09-17T11:48:44.525Z,6.63
2022-09-17T11:51:23.572Z,6.85
2022-09-17T11:53:56.990Z,6.30
2022-09-17T11:56:28.385Z,5.53
2022-09-17T11:59:02.644Z,6.55
2022-09-17T12:01:37.719Z,5.35
2022-09-17T12:04:20.042Z,6.53
2022-09-17T12:06:55.572Z,6.47
2022-09-17T12:09:26.826Z,6.78
2022-09-17T12:12:01.233Z,5.65
2022-09-17T12:14:38.232Z,6.45
2022-09-17T12:17:08.189Z,5.68
2022-09-17T12:19:41.501Z,5.90
2022-09-17T12:22:12.966Z,6.00
2022-09-17T12:24:42.045Z,5.82
2022-09-17T12:27:27.297Z,6.30
2022-09-17T12:30:12.218Z,5.63
2022-09-17T12:33:04.266Z,6.10
2022-09-17T12:36:08.569Z,6.22
2022-09-17T12:39:15.221Z,4.88
2022-09-17T12:41:57.330Z,5.57
2022-09-17T12:44:45.012Z,5.15
2022-09-17T12:47:45.787Z,6.20
2022-09-17T12:50:21.495Z,5.80
2022-09-17T12:53:03.463Z,5.55
2022-09-17T12:55:41.640Z,4.50
2022-09-17T12:58:19.634Z,5.80
2022-09-17T13:00:53.167Z,4.82
2022-09-17T13:03:27.471Z,4.28
2022-09-17T13:06:32.656Z,4.53
2022-09-17T13:09:42.853Z,5.03
2022-09-17T13:12:18.998Z,5.18
2022-09-17T13:15:04.608Z,4.07
2022-09-17T13:17:40.782Z,5.05
2022-09-17T13:20:18.734Z,4.95
2022-09-17T13:22:49.070Z,5.50
2022-09-17T13:25:19.214Z,4.87
2022-09-17T13:27:47.777Z,4.07
2022-09-17T13:30:16.552Z,4.60
2022-09-17T13:32:54.883Z,4.53
2022-09-17T13:35:50.203Z,4.47
2022-09-17T13:38:23.667Z,4.90
2022-09-17T13:40:53.289Z,4.23
2022-09-17T13:43:27.756Z,5.10
2022-09-17T13:46:23.551Z,5.30
2022-09-17T13:48:57.054Z,6.47
2022-09-17T13:51:51.625Z,5.93
2022-09-17T13:54:22.599Z,6.93
2022-09-17T13:57:07.046Z,6.10
2022-09-17T13:59:37.177Z,5.43
2022-09-17T14:02:31.376Z,6.23
2022-09-17T14:05:40.922Z,5.50
2022-09-17T14:08:32.639Z,5.40
2022-09-17T14:11:25.342Z,6.20
2022-09-17T14:13:54.190Z,5.83
2022-09-17T14:16:37.008Z,5.90
2022-09-17T14:19:23.067Z,6.23
2022-09-17T14:22:00.548Z,6.53
2022-09-17T14:24:36.215Z,6.47
2022-09-17T14:27:27.830Z,6.90
2022-09-17T14:30:15.087Z,6.93
2022-09-17T14:32:49.286Z,6.60
2022-09-17T14:35:25.937Z,6.13
2022-09-17T14:37:58.639Z,5.87
2022-09-17T14:40:28.990Z,6.83
2022-09-17T14:42:58.859Z,6.50
2022-09-17T14:45:32.445Z,5.97
2022-09-17T14:48:28.989Z,6.37
2022-09-17T14:51:28.323Z,5.33
2022-09-17T14:54:14.627Z,5.13
2022-09-17T14:56:55.261Z,4.83
2022-09-17T14:59:29.215Z,5.13
2022-09-17T15:01:57.502Z,4.90
2022-09-17T15:04:27.589Z,5.40
2022-09-17T15:07:08.504Z,5.23
2022-09-17T15:09:36.864Z,5.00
2022-09-17T15:12:07.701Z,5.07
2022-09-17T15:14:39.867Z,6.13
2022-09-17T15:17:14.731Z,5.53
2022-09-17T15:19:48.022Z,5.43
2022-09-17T15:22:21.689Z,5.73
2022-09-17T15:24:54.234Z,5.80
2022-09-17T15:27:28.228Z,6.77
2022-09-17T15:30:00.241Z,5.87
2022-09-17T15:32:28.509Z,5.93
2022-09-17T15:35:20.892Z,6.50
2022-09-17T15:38:11.971Z,6.17
2022-09-17T15:40:40.995Z,5.70
2022-09-17T15:43:19.685Z,5.53
2022-09-17T15:45:48.079Z,5.03
2022-09-17T15:48:25.750Z,5.10
2022-09-17T15:50:55.060Z,5.30
2022-09-17T15:53:26.537Z,5.35
2022-09-17T15:56:03.957Z,5.73
2022-09-17T15:58:52.428Z,5.88
2022-09-17T16:01:50.197Z,6.10
2022-09-17T16:04:29.928Z,4.80
2022-09-17T16:07:17.917Z,5.47
2022-09-17T16:09:50.691Z,4.87
2022-09-17T16:12:20.887Z,5.03
2022-09-17T16:14:53.399Z,4.73
2022-09-17T16:17:28.083Z,4.40
2022-09-17T16:19:56.790Z,5.07
2022-09-17T16:22:26.293Z,4.80
2022-09-17T16:24:54.606Z,4.37
2022-09-17T16:27:25.873Z,5.00
2022-09-17T16:30:01.439Z,4.27
2022-09-17T16:32:29.834Z,5.17
2022-09-17T16:34:58.092Z,4.37
2022-09-17T16:37:26.439Z,4.60
2022-09-17T16:39:54.771Z,4.70
2022-09-17T16:42:23.143Z,4.17
2022-09-17T16:44:51.433Z,4.27
2022-09-17T16:47:20.792Z,4.97
2022-09-17T16:49:49.090Z,4.10
2022-09-17T16:52:17.421Z,4.47
2022-09-17T16:54:45.790Z,4.37
2022-09-17T16:57:14.075Z,4.60
2022-09-17T16:59:42.052Z,4.57
2022-09-17T17:02:11.173Z,4.77
2022-09-17T17:04:40.552Z,4.70
2022-09-17T17:07:08.594Z,4.57
2022-09-17T17:09:37.962Z,4.73
2022-09-17T17:12:06.217Z,4.87
2022-09-17T17:14:34.171Z,4.30
2022-09-17T17:17:02.734Z,4.67
2022-09-17T17:19:31.195Z,4.47
2022-09-17T17:22:00.578Z,4.40
2022-09-17T17:24:28.836Z,4.17
2022-09-17T17:26:57.147Z,4.30
2022-09-17T17:29:25.420Z,4.20
2022-09-17T17:31:53.773Z,4.73
2022-09-17T17:34:21.893Z,4.57
2022-09-17T17:36:50.697Z,4.30
2022-09-17T17:39:20.153Z,4.03
2022-09-17T17:41:51.626Z,6.00
2022-09-17T17:44:20.246Z,5.00
2022-09-17T17:46:48.666Z,4.83
2022-09-17T17:49:17.067Z,4.80
2022-09-17T17:51:45.069Z,4.40
2022-09-17T17:54:13.355Z,4.80
2022-09-17T17:56:42.738Z,4.47
2022-09-17T17:59:10.775Z,4.53
2022-09-17T18:01:39.416Z,4.20
2022-09-17T18:04:08.524Z,3.97
2022-09-17T18:06:36.879Z,4.37
2022-09-17T18:09:06.095Z,4.77
2022-09-17T18:11:34.674Z,4.10
2022-09-17T18:14:04.389Z,4.37
2022-09-17T18:16:32.794Z,4.17
2022-09-17T18:19:01.278Z,4.73
2022-09-17T18:21:29.762Z,4.03
2022-09-17T18:23:58.119Z,4.63
2022-09-17T18:26:28.804Z,4.10
2022-09-17T18:28:57.108Z,4.47
2022-09-17T18:31:28.314Z,4.00
2022-09-17T18:33:58.172Z,3.97
2022-09-17T18:36:26.728Z,4.33
2022-09-17T18:38:57.076Z,3.90
2022-09-17T18:41:25.140Z,4.03
2022-09-17T18:43:53.476Z,4.70
2022-09-17T18:46:21.810Z,4.50
2022-09-17T18:48:54.696Z,4.33
2022-09-17T18:51:24.382Z,5.13
2022-09-17T18:53:53.581Z,4.10
2022-09-17T18:56:23.933Z,3.97
2022-09-17T18:58:55.080Z,5.30
2022-09-17T19:01:25.675Z,4.23
2022-09-17T19:03:55.616Z,4.03
2022-09-17T19:06:24.411Z,4.40
2022-09-17T19:08:52.418Z,4.13
2022-09-17T19:11:20.691Z,3.77
2022-09-17T19:13:50.158Z,4.17
2022-09-17T19:16:18.939Z,4.60
2022-09-17T19:18:47.211Z,4.20
2022-09-17T19:21:18.682Z,4.40
2022-09-17T19:23:48.028Z,3.93
2022-09-17T19:26:17.849Z,3.97
2022-09-17T19:28:46.528Z,4.07
2022-09-17T19:31:16.344Z,3.90
2022-09-17T19:33:45.060Z,4.17
2022-09-17T19:36:15.266Z,3.60
2022-09-17T19:38:45.319Z,4.73
2022-09-17T19:41:16.009Z,4.63
2022-09-17T19:43:45.168Z,4.00
2022-09-17T19:46:15.474Z,4.33
2022-09-17T19:48:45.554Z,3.67
2022-09-17T19:51:17.946Z,4.53
2022-09-17T19:53:47.477Z,4.13
2022-09-17T19:56:17.527Z,4.63
2022-09-17T19:58:46.163Z,3.97
2022-09-17T20:01:14.659Z,3.97
2022-09-17T20:03:44.937Z,4.00
2022-09-17T20:06:14.679Z,4.40
2022-09-17T20:08:47.466Z,4.00
2022-09-17T20:11:16.506Z,4.03
2022-09-17T20:13:45.151Z,4.23
2022-09-17T20:16:15.029Z,4.27
2022-09-17T20:18:43.859Z,3.80
2022-09-17T20:21:12.431Z,4.07
2022-09-17T20:23:40.804Z,3.70
2022-09-17T20:26:10.537Z,3.70
2022-09-17T20:28:38.877Z,4.00
2022-09-17T20:31:09.014Z,4.40
2022-09-17T20:33:37.403Z,3.83
2022-09-17T20:36:08.357Z,4.43
2022-09-17T20:41:27.418Z,3.87
2022-09-17T20:43:55.895Z,4.60
2022-09-17T20:46:29.016Z,4.17
2022-09-17T20:48:58.427Z,4.50
2022-09-17T20:51:28.251Z,4.70
2022-09-17T20:53:57.122Z,4.40
2022-09-17T20:56:28.279Z,4.57
2022-09-17T20:59:03.958Z,4.43
2022-09-17T21:01:34.491Z,4.40
2022-09-17T21:04:04.363Z,4.07
2022-09-17T21:06:34.031Z,4.90
2022-09-17T21:09:02.310Z,3.90
2022-09-17T21:11:32.159Z,4.80
2022-09-17T21:14:01.716Z,4.53
2022-09-17T21:16:30.535Z,4.10
2022-09-17T21:18:59.366Z,3.87
2022-09-17T21:21:27.937Z,3.63
2022-09-17T21:23:56.334Z,4.03
2022-09-17T21:26:25.548Z,5.63
2022-09-17T21:28:56.902Z,4.17
2022-09-17T21:31:31.684Z,4.27
2022-09-17T21:34:02.306Z,4.63
2022-09-17T21:36:32.648Z,4.57
2022-09-17T21:39:02.865Z,4.60
2022-09-17T21:41:31.433Z,4.57
2022-09-17T21:44:01.188Z,4.60
2022-09-17T21:46:33.060Z,4.03
2022-09-17T21:49:02.698Z,4.50
2022-09-17T21:51:32.192Z,4.47
2022-09-17T21:54:01.906Z,4.10
2022-09-17T21:56:31.209Z,4.67
2022-09-17T21:59:02.732Z,4.43
2022-09-17T22:01:32.742Z,4.73
2022-09-17T22:04:02.079Z,4.90
2022-09-17T22:06:32.066Z,4.60
2022-09-17T22:09:02.066Z,4.20
2022-09-17T22:11:32.121Z,5.47
2022-09-17T22:14:05.232Z,4.20
2022-09-17T22:16:35.943Z,4.63
2022-09-17T22:19:04.735Z,4.47
2022-09-17T22:21:35.240Z,4.60
2022-09-17T22:24:06.723Z,4.33
2022-09-17T22:26:37.235Z,4.20
2022-09-17T22:29:09.384Z,4.97
2022-09-17T22:31:37.791Z,4.50
2022-09-17T22:34:08.949Z,4.83
2022-09-17T22:36:37.343Z,4.53
2022-09-17T22:39:07.172Z,4.47
2022-09-17T22:41:37.255Z,5.00
2022-09-17T22:44:08.541Z,5.13
2022-09-17T22:46:39.252Z,5.03
2022-09-17T22:49:08.239Z,5.23
2022-09-17T22:51:36.541Z,4.63
2022-09-17T22:54:04.926Z,4.73
2022-09-17T22:56:33.256Z,5.43
2022-09-17T22:59:01.240Z,5.50
2022-09-17T23:01:33.862Z,4.80
2022-09-17T23:04:03.074Z,5.30
2022-09-17T23:06:32.931Z,4.80
2022-09-17T23:09:01.507Z,4.97
2022-09-17T23:11:31.546Z,4.67
2022-09-17T23:14:03.611Z,5.30
2022-09-17T23:16:35.720Z,4.23
2022-09-17T23:19:04.141Z,4.53
2022-09-17T23:21:32.209Z,4.93
2022-09-17T23:24:00.598Z,4.90
2022-09-17T23:26:28.947Z,4.57
2022-09-17T23:29:01.155Z,4.23
2022-09-17T23:31:34.766Z,4.10
2022-09-17T23:34:04.216Z,4.40
2022-09-17T23:36:34.509Z,4.57
2022-09-17T23:39:03.292Z,5.10
2022-09-17T23:41:32.866Z,4.70
2022-09-17T23:44:02.667Z,4.23
2022-09-17T23:46:33.838Z,4.07
2022-09-17T23:49:01.982Z,4.23
2022-09-17T23:51:31.697Z,4.43
2022-09-17T23:53:59.994Z,4.30
2022-09-17T23:56:29.340Z,5.10
2022-09-17T23:59:00.045Z,4.53
